Time;durP1;ratioP1;P1;durP2;ratioP2;P2;SDS_P1;SDS_P2;PMS_P1;PMS_P2;Temp;Humidity;BMP_temperature;BMP_pressure;BME280_temperature;BME280_humidity;BME280_pressure;Samples;Min_cycle;Max_cycle;Signal;HPM_P1;HPM_P2
2023/11/15 00:01:04;;;;;;;10.38;5.40;;;;;;;;;;5168783;27;20019;-49
2023/11/15 00:03:31;;;;;;;8.45;5.10;;;;;;;;;;5169197;27;20030;-52
2023/11/15 00:05:58;;;;;;;7.70;4.90;;;;;;;;;;5168658;27;20345;-48
2023/11/15 00:08:25;;;;;;;8.00;5.10;;;;;;;;;;5168674;27;20042;-49
2023/11/15 00:10:54;;;;;;;9.38;5.10;;;;;;;;;;5150165;27;20050;-51
2023/11/15 00:13:21;;;;;;;8.80;5.20;;;;;;;;;;5168539;27;20050;-45
2023/11/15 00:15:47;;;;;;;10.32;5.43;;;;;;;;;;5167463;27;20033;-52
2023/11/15 00:18:14;;;;;;;11.48;5.90;;;;;;;;;;5168446;27;20242;-46
2023/11/15 00:20:41;;;;;;;7.13;5.32;;;;;;;;;;5168514;27;20074;-51
2023/11/15 00:23:08;;;;;;;12.57;5.65;;;;;;;;;;5168236;27;20022;-52
2023/11/15 00:25:35;;;;;;;11.13;5.35;;;;;;;;;;5168356;27;20027;-49
2023/11/15 00:28:03;;;;;;;10.35;5.68;;;;;;;;;;5168146;27;20046;-51
2023/11/15 00:30:30;;;;;;;12.48;5.75;;;;;;;;;;5155832;27;20030;-47
2023/11/15 00:32:56;;;;;;;6.95;5.00;;;;;;;;;;5146854;27;20299;-49
2023/11/15 00:35:23;;;;;;;8.13;4.93;;;;;;;;;;5147069;27;20034;-50
2023/11/15 00:37:50;;;;;;;10.90;5.18;;;;;;;;;;5146878;27;20011;-47
2023/11/15 00:40:17;;;;;;;10.45;5.50;;;;;;;;;;5147581;27;20172;-54
2023/11/15 00:42:44;;;;;;;10.25;5.55;;;;;;;;;;5146940;27;20315;-53
2023/11/15 00:45:14;;;;;;;8.77;5.30;;;;;;;;;;5147513;27;20252;-54
2023/11/15 00:47:41;;;;;;;9.15;5.15;;;;;;;;;;5145948;27;20217;-47
2023/11/15 00:50:08;;;;;;;9.63;5.20;;;;;;;;;;5147381;27;20035;-48
2023/11/15 00:52:35;;;;;;;8.27;5.13;;;;;;;;;;5147161;27;20311;-50
2023/11/15 00:55:01;;;;;;;9.80;5.47;;;;;;;;;;5147027;27;20042;-47
2023/11/15 00:57:34;;;;;;;8.00;5.55;;;;;;;;;;5146959;27;20035;-51
2023/11/15 01:00:01;;;;;;;9.50;4.82;;;;;;;;;;5146736;27;20015;-55
2023/11/15 01:02:35;;;;;;;11.15;5.35;;;;;;;;;;5147013;27;20055;-48
2023/11/15 01:05:03;;;;;;;9.20;5.22;;;;;;;;;;5147125;27;20038;-48
2023/11/15 01:07:31;;;;;;;7.63;5.07;;;;;;;;;;5146604;27;20016;-53
2023/11/15 01:09:59;;;;;;;7.53;4.82;;;;;;;;;;5147009;27;20187;-50
2023/11/15 01:12:25;;;;;;;7.97;4.75;;;;;;;;;;5146657;27;20051;-53
2023/11/15 01:14:53;;;;;;;8.60;5.00;;;;;;;;;;5146872;27;20242;-54
2023/11/15 01:17:20;;;;;;;9.40;5.15;;;;;;;;;;5146524;27;20039;-51
2023/11/15 01:19:48;;;;;;;6.47;4.72;;;;;;;;;;5147011;27;20315;-50
2023/11/15 01:22:14;;;;;;;10.68;4.80;;;;;;;;;;5146319;27;20031;-51
2023/11/15 01:24:41;;;;;;;9.48;4.72;;;;;;;;;;5146632;27;20035;-50
2023/11/15 01:27:08;;;;;;;10.25;4.90;;;;;;;;;;5146326;27;20028;-52
2023/11/15 01:29:34;;;;;;;10.65;5.00;;;;;;;;;;5146581;27;20015;-51
2023/11/15 01:32:01;;;;;;;10.75;5.80;;;;;;;;;;5146298;27;20346;-50
2023/11/15 01:34:28;;;;;;;10.73;6.63;;;;;;;;;;5139739;27;20038;-51
2023/11/15 01:36:54;;;;;;;20.20;7.63;;;;;;;;;;5142551;27;20023;-50
2023/11/15 01:39:23;;;;;;;19.50;5.88;;;;;;;;;;5130456;27;20065;-48
2023/11/15 01:41:50;;;;;;;9.63;5.35;;;;;;;;;;5139725;27;20040;-50
2023/11/15 01:44:17;;;;;;;11.65;5.53;;;;;;;;;;5166479;27;20046;-50
2023/11/15 01:46:45;;;;;;;10.70;5.32;;;;;;;;;;5166814;27;20231;-52
2023/11/15 01:49:12;;;;;;;10.73;5.38;;;;;;;;;;5166947;27;20030;-55
2023/11/15 01:51:39;;;;;;;11.02;5.35;;;;;;;;;;5145618;27;20035;-53
2023/11/15 01:54:06;;;;;;;8.52;4.88;;;;;;;;;;5128828;27;20209;-52
2023/11/15 01:56:33;;;;;;;8.80;5.03;;;;;;;;;;5124955;28;20071;-49
2023/11/15 01:59:02;;;;;;;12.70;6.13;;;;;;;;;;5146629;27;20027;-53
2023/11/15 02:01:30;;;;;;;9.57;5.78;;;;;;;;;;5166313;27;20033;-50
2023/11/15 02:03:57;;;;;;;12.38;5.25;;;;;;;;;;5136331;27;20046;-46
2023/11/15 02:06:28;;;;;;;10.15;5.22;;;;;;;;;;5136419;27;20033;-53
2023/11/15 02:08:55;;;;;;;11.85;5.90;;;;;;;;;;5160660;27;20035;-51
2023/11/15 02:11:27;;;;;;;13.55;5.55;;;;;;;;;;5146867;27;20027;-51
2023/11/15 02:13:54;;;;;;;8.15;4.90;;;;;;;;;;5129440;27;20028;-52
2023/11/15 02:16:24;;;;;;;8.07;5.05;;;;;;;;;;5125001;28;20054;-50
2023/11/15 02:18:50;;;;;;;7.78;5.00;;;;;;;;;;5136525;27;20034;-43
2023/11/15 02:21:17;;;;;;;6.63;4.32;;;;;;;;;;5145032;27;20097;-50
2023/11/15 02:23:44;;;;;;;8.02;4.78;;;;;;;;;;5142549;27;20031;-49
2023/11/15 02:26:11;;;;;;;8.75;4.43;;;;;;;;;;5133426;27;20028;-46
2023/11/15 02:28:37;;;;;;;8.18;4.53;;;;;;;;;;5143310;27;20014;-46
2023/11/15 02:31:05;;;;;;;9.82;4.40;;;;;;;;;;5139032;27;20019;-41
2023/11/15 02:33:32;;;;;;;7.38;4.40;;;;;;;;;;5135950;27;20064;-47
2023/11/15 02:35:59;;;;;;;7.78;4.28;;;;;;;;;;5143725;27;20077;-45
2023/11/15 02:38:25;;;;;;;6.35;4.28;;;;;;;;;;5136661;27;20034;-54
2023/11/15 02:40:52;;;;;;;7.43;4.40;;;;;;;;;;5141909;27;20087;-45
2023/11/15 11:45:03;;;;;;;12.05;5.00;;;;;;;;;;5120856;27;20481;-48
2023/11/15 11:47:30;;;;;;;9.40;4.30;;;;;;;;;;5119749;28;20020;-43
2023/11/15 11:49:59;;;;;;;8.63;4.18;;;;;;;;;;5119822;28;20031;-44
2023/11/15 11:52:27;;;;;;;13.00;4.25;;;;;;;;;;5120831;28;20031;-41
2023/11/15 11:54:55;;;;;;;9.60;3.58;;;;;;;;;;5119476;28;20054;-42
2023/11/15 11:57:22;;;;;;;7.93;3.88;;;;;;;;;;5118943;28;20026;-53
2023/11/15 12:00:01;;;;;;;8.20;3.30;;;;;;;;;;5119433;28;20024;-48
2023/11/15 12:02:35;;;;;;;6.13;3.63;;;;;;;;;;5119686;28;20042;-47
2023/11/15 12:05:02;;;;;;;8.20;3.50;;;;;;;;;;5119995;28;19904;-41
2023/11/15 12:07:29;;;;;;;10.30;3.95;;;;;;;;;;5119789;28;20031;-48
2023/11/15 12:10:05;;;;;;;14.45;4.28;;;;;;;;;;5120436;28;20027;-41
2023/11/15 12:12:32;;;;;;;10.85;3.60;;;;;;;;;;5121279;28;20026;-48
2023/11/15 12:15:04;;;;;;;6.68;3.20;;;;;;;;;;5121345;28;20027;-42
2023/11/15 12:17:31;;;;;;;;;;;;;;;;;;5121644;28;20023;-44
2023/11/15 12:19:57;;;;;;;7.75;3.40;;;;;;;;;;5121160;28;19911;-43
2023/11/15 12:22:24;;;;;;;8.20;3.70;;;;;;;;;;5121172;28;20046;-40
2023/11/15 12:24:51;;;;;;;6.43;3.72;;;;;;;;;;5120974;28;20222;-40
2023/11/15 12:27:18;;;;;;;7.93;3.58;;;;;;;;;;5121095;28;20102;-40
2023/11/15 12:29:45;;;;;;;5.88;3.45;;;;;;;;;;5120892;28;20079;-43
2023/11/15 12:32:13;;;;;;;8.88;3.65;;;;;;;;;;5120862;28;20016;-41
2023/11/15 12:34:39;;;;;;;9.95;3.67;;;;;;;;;;5121312;28;20032;-43
2023/11/15 12:37:06;;;;;;;7.70;3.88;;;;;;;;;;5121110;28;20279;-45
2023/11/15 12:39:37;;;;;;;11.93;3.45;;;;;;;;;;5121240;28;20032;-44
2023/11/15 12:42:04;;;;;;;6.03;3.33;;;;;;;;;;5120777;28;20024;-39
2023/11/15 12:44:46;;;;;;;5.88;3.30;;;;;;;;;;5120446;28;20047;-50
2023/11/15 12:47:16;;;;;;;;;;;;;;;;;;5121074;28;20015;-44
2023/11/15 12:49:43;;;;;;;4.50;2.90;;;;;;;;;;5121026;28;19918;-46
2023/11/15 12:52:10;;;;;;;5.78;2.97;;;;;;;;;;5120475;28;20032;-45
2023/11/15 12:54:52;;;;;;;7.75;3.60;;;;;;;;;;5116911;28;20039;-48
2023/11/15 12:57:19;;;;;;;5.57;3.15;;;;;;;;;;5106787;28;20205;-41
2023/11/15 12:59:50;;;;;;;6.15;3.15;;;;;;;;;;5107081;28;20032;-41
2023/11/15 13:02:26;;;;;;;6.78;2.90;;;;;;;;;;5106734;28;20359;-45
2023/11/15 13:04:53;;;;;;;6.13;3.58;;;;;;;;;;5106696;28;20166;-45
2023/11/15 13:07:20;;;;;;;6.75;2.88;;;;;;;;;;5106609;28;20028;-48
2023/11/15 13:09:48;;;;;;;4.97;3.03;;;;;;;;;;5106991;28;20065;-48
2023/11/15 13:12:24;;;;;;;6.30;3.00;;;;;;;;;;5106462;28;20042;-47
2023/11/15 13:14:51;;;;;;;6.20;3.05;;;;;;;;;;5107284;28;20363;-45
2023/11/15 13:17:18;;;;;;;6.45;3.20;;;;;;;;;;5106279;28;20087;-49
2023/11/15 13:19:44;;;;;;;6.72;2.78;;;;;;;;;;5106913;28;20312;-44
2023/11/15 13:22:11;;;;;;;4.85;3.08;;;;;;;;;;5106444;28;20020;-47
2023/11/15 13:24:39;;;;;;;5.75;3.35;;;;;;;;;;5106587;28;20032;-44
2023/11/15 13:27:05;;;;;;;6.88;3.10;;;;;;;;;;5106284;28;20083;-42
2023/11/15 13:29:32;;;;;;;4.57;2.60;;;;;;;;;;5106814;28;20024;-42
2023/11/15 13:31:59;;;;;;;4.75;3.00;;;;;;;;;;5106063;28;20024;-41
2023/11/15 13:34:25;;;;;;;5.47;3.13;;;;;;;;;;5106549;28;20099;-41
2023/11/15 13:36:52;;;;;;;5.88;3.20;;;;;;;;;;5106146;28;20022;-43
2023/11/15 13:39:19;;;;;;;8.32;3.13;;;;;;;;;;5106162;28;20062;-50
2023/11/15 13:41:46;;;;;;;5.13;2.88;;;;;;;;;;5105861;28;20028;-41
2023/11/15 13:44:13;;;;;;;5.63;2.95;;;;;;;;;;5105586;28;20040;-47
2023/11/15 13:46:40;;;;;;;5.97;3.00;;;;;;;;;;5105711;28;20043;-51
2023/11/15 13:49:06;;;;;;;4.95;3.03;;;;;;;;;;5106219;28;20356;-48
2023/11/15 13:51:34;;;;;;;7.97;3.38;;;;;;;;;;5105780;28;20020;-43
2023/11/15 13:54:02;;;;;;;7.75;3.00;;;;;;;;;;5105870;28;20031;-46
2023/11/15 13:56:28;;;;;;;7.38;2.72;;;;;;;;;;5105694;28;20126;-48
2023/11/15 13:58:56;;;;;;;5.38;3.00;;;;;;;;;;5106135;28;20023;-47
2023/11/15 14:01:22;;;;;;;6.75;3.33;;;;;;;;;;5105510;28;20260;-49
2023/11/15 14:03:50;;;;;;;5.57;3.05;;;;;;;;;;5105802;28;20276;-48
2023/11/15 14:06:17;;;;;;;4.45;2.65;;;;;;;;;;5104773;28;20020;-46
2023/11/15 14:08:45;;;;;;;5.65;3.13;;;;;;;;;;5105356;28;20028;-46
2023/11/15 14:11:12;;;;;;;5.65;3.22;;;;;;;;;;5105511;28;20051;-47
2023/11/15 14:13:41;;;;;;;5.85;3.17;;;;;;;;;;5105147;28;20016;-49
2023/11/15 14:16:08;;;;;;;7.47;3.30;;;;;;;;;;5105198;28;20056;-52
2023/11/15 14:18:34;;;;;;;7.03;3.35;;;;;;;;;;5105515;28;20203;-46
2023/11/15 14:21:04;;;;;;;5.88;3.03;;;;;;;;;;5105245;28;20031;-48
2023/11/15 14:23:30;;;;;;;5.45;3.13;;;;;;;;;;5105102;28;20052;-47
2023/11/15 14:25:58;;;;;;;5.28;3.30;;;;;;;;;;5105308;28;20058;-47
2023/11/15 14:28:24;;;;;;;9.20;3.25;;;;;;;;;;5105215;28;20300;-43
2023/11/15 14:30:51;;;;;;;5.47;2.83;;;;;;;;;;5105230;28;20024;-51
2023/11/15 14:33:18;;;;;;;7.32;3.83;;;;;;;;;;5105127;28;20043;-45
2023/11/15 14:35:45;;;;;;;6.68;3.50;;;;;;;;;;5105104;28;20024;-46
2023/11/15 14:38:11;;;;;;;9.00;3.38;;;;;;;;;;5104900;28;20024;-51
2023/11/15 14:40:40;;;;;;;6.20;3.53;;;;;;;;;;5105184;28;20108;-48
2023/11/15 14:43:09;;;;;;;5.95;3.38;;;;;;;;;;5104622;28;20067;-46
2023/11/15 14:45:36;;;;;;;6.15;3.35;;;;;;;;;;5104593;28;20024;-48
2023/11/15 14:48:03;;;;;;;6.38;3.53;;;;;;;;;;5104949;28;20043;-44
2023/11/15 14:50:32;;;;;;;7.40;3.70;;;;;;;;;;5104710;28;20312;-49
2023/11/15 14:55:47;;;;;;;7.35;3.35;;;;;;;;;;5104650;28;20099;-44
2023/11/15 14:58:14;;;;;;;6.72;3.75;;;;;;;;;;5104386;28;20039;-47
2023/11/15 15:00:41;;;;;;;5.97;3.88;;;;;;;;;;5104507;28;20035;-47
2023/11/15 15:03:11;;;;;;;7.13;3.67;;;;;;;;;;5104287;28;20046;-44
2023/11/15 15:05:38;;;;;;;6.53;3.58;;;;;;;;;;5104166;28;20020;-45
2023/11/15 15:08:07;;;;;;;8.57;3.80;;;;;;;;;;5104572;28;20031;-45
2023/11/15 15:10:36;;;;;;;8.73;4.32;;;;;;;;;;5104375;28;20046;-45
2023/11/15 15:13:12;;;;;;;5.47;3.92;;;;;;;;;;5104229;28;20296;-48
2023/11/15 15:15:40;;;;;;;8.25;3.80;;;;;;;;;;5104320;28;20035;-41
2023/11/15 15:18:07;;;;;;;6.50;3.90;;;;;;;;;;5104011;28;20093;-49
2023/11/15 15:20:34;;;;;;;7.70;3.92;;;;;;;;;;5104023;28;20028;-45
2023/11/15 15:23:02;;;;;;;7.38;3.90;;;;;;;;;;5104214;28;20028;-43
2023/11/15 15:25:30;;;;;;;9.18;4.53;;;;;;;;;;5104153;28;20027;-49
2023/11/15 15:27:57;;;;;;;7.57;4.32;;;;;;;;;;5104015;28;20032;-43
2023/11/15 15:30:32;;;;;;;7.93;4.00;;;;;;;;;;5104134;28;20023;-41
2023/11/15 15:33:01;;;;;;;8.82;4.65;;;;;;;;;;5103948;28;20028;-42
2023/11/15 15:35:34;;;;;;;10.52;4.25;;;;;;;;;;5104097;28;20042;-46
2023/11/15 15:38:04;;;;;;;9.15;4.70;;;;;;;;;;5104158;28;20044;-44
2023/11/15 15:40:36;;;;;;;7.30;4.10;;;;;;;;;;5103725;28;20328;-48
2023/11/15 15:43:03;;;;;;;6.60;3.80;;;;;;;;;;5103573;28;20056;-44
2023/11/15 15:45:30;;;;;;;9.52;4.50;;;;;;;;;;5103719;28;20354;-44
2023/11/15 15:47:58;;;;;;;6.88;4.10;;;;;;;;;;5103793;28;20035;-47
2023/11/15 15:50:25;;;;;;;6.72;4.05;;;;;;;;;;5103883;28;20027;-42
2023/11/15 15:52:52;;;;;;;9.52;4.40;;;;;;;;;;5103868;28;20039;-48
2023/11/15 15:55:18;;;;;;;9.68;4.60;;;;;;;;;;5104045;28;20016;-43
2023/11/15 15:57:45;;;;;;;8.02;4.40;;;;;;;;;;5103879;28;20023;-47
2023/11/15 16:00:12;;;;;;;8.38;4.18;;;;;;;;;;5103747;28;20028;-46
2023/11/15 16:02:39;;;;;;;11.20;4.60;;;;;;;;;;5103643;28;20012;-41
2023/11/15 16:05:09;;;;;;;11.60;4.88;;;;;;;;;;5103896;28;20054;-52
2023/11/15 16:07:36;;;;;;;8.57;4.15;;;;;;;;;;5104009;28;20032;-53
2023/11/15 16:10:04;;;;;;;10.50;4.95;;;;;;;;;;5103658;28;20040;-45
2023/11/15 16:12:36;;;;;;;7.75;4.80;;;;;;;;;;5104198;28;20023;-50
2023/11/15 16:15:04;;;;;;;6.72;4.38;;;;;;;;;;5103564;28;20024;-44
2023/11/15 16:17:34;;;;;;;8.70;4.45;;;;;;;;;;5103670;28;20016;-41
2023/11/15 16:20:02;;;;;;;11.23;4.65;;;;;;;;;;5103561;28;20257;-40
2023/11/15 16:22:29;;;;;;;11.82;5.10;;;;;;;;;;5103424;28;20092;-43
2023/11/15 16:24:57;;;;;;;12.20;5.10;;;;;;;;;;5103573;28;20091;-42
2023/11/15 16:27:23;;;;;;;18.67;5.78;;;;;;;;;;5103779;28;20331;-43
2023/11/15 16:29:51;;;;;;;15.50;5.68;;;;;;;;;;5104625;28;20300;-43
2023/11/15 16:32:19;;;;;;;10.63;5.25;;;;;;;;;;5107768;28;20185;-46
2023/11/15 16:34:46;;;;;;;16.15;6.25;;;;;;;;;;5107879;28;20042;-43
2023/11/15 16:37:13;;;;;;;21.60;6.65;;;;;;;;;;5107189;28;20063;-49
2023/11/15 16:39:41;;;;;;;18.95;6.47;;;;;;;;;;5107822;28;20028;-47
2023/11/15 16:42:09;;;;;;;18.88;7.00;;;;;;;;;;5107221;28;20043;-48
2023/11/15 16:44:36;;;;;;;22.67;6.60;;;;;;;;;;5106657;28;20043;-43
2023/11/15 16:47:04;;;;;;;17.58;6.82;;;;;;;;;;5106996;28;20016;-42
2023/11/15 16:49:30;;;;;;;16.75;6.45;;;;;;;;;;5107409;28;20032;-42
2023/11/15 16:51:59;;;;;;;15.88;6.00;;;;;;;;;;5106799;28;20177;-42
2023/11/15 16:54:26;;;;;;;16.27;6.03;;;;;;;;;;5107320;28;20028;-43
2023/11/15 16:56:53;;;;;;;14.18;6.13;;;;;;;;;;5106941;28;20039;-46
2023/11/15 16:59:20;;;;;;;15.23;6.45;;;;;;;;;;5107026;28;20031;-42
2023/11/15 17:01:46;;;;;;;17.15;6.60;;;;;;;;;;5106868;28;20012;-47
2023/11/15 17:04:13;;;;;;;15.80;6.70;;;;;;;;;;5107111;28;20081;-49
2023/11/15 17:06:40;;;;;;;17.98;7.00;;;;;;;;;;5106936;28;20019;-45
2023/11/15 17:09:07;;;;;;;14.75;6.50;;;;;;;;;;5107156;28;20034;-44
2023/11/15 17:11:34;;;;;;;15.93;7.05;;;;;;;;;;5106667;28;20082;-48
2023/11/15 17:14:01;;;;;;;14.50;6.88;;;;;;;;;;5106741;28;20083;-46
2023/11/15 17:16:27;;;;;;;13.35;6.53;;;;;;;;;;5106677;28;20323;-45
2023/11/15 17:18:54;;;;;;;11.82;6.55;;;;;;;;;;5106917;28;20039;-46
2023/11/15 17:21:21;;;;;;;11.05;6.65;;;;;;;;;;5106708;28;20204;-49
2023/11/15 17:23:49;;;;;;;10.32;5.93;;;;;;;;;;5106695;28;20028;-49
2023/11/15 17:26:16;;;;;;;14.32;7.18;;;;;;;;;;5106495;28;20024;-42
2023/11/15 17:28:43;;;;;;;10.52;5.88;;;;;;;;;;5106217;28;20020;-47
2023/11/15 17:31:10;;;;;;;11.95;5.93;;;;;;;;;;5106244;28;20028;-45
2023/11/15 17:33:37;;;;;;;8.65;5.68;;;;;;;;;;5106437;28;20035;-50
2023/11/15 17:36:04;;;;;;;12.15;5.40;;;;;;;;;;5106479;28;20024;-52
2023/11/15 17:38:31;;;;;;;10.63;5.85;;;;;;;;;;5106362;28;20032;-41
2023/11/15 17:40:59;;;;;;;9.18;5.30;;;;;;;;;;5106003;28;20034;-43
2023/11/15 17:43:26;;;;;;;11.52;5.88;;;;;;;;;;5105715;28;20266;-46
2023/11/15 17:45:53;;;;;;;8.93;5.63;;;;;;;;;;5106316;28;20192;-47
2023/11/15 17:48:20;;;;;;;13.38;5.93;;;;;;;;;;5106022;28;20032;-46
2023/11/15 17:50:48;;;;;;;9.57;5.40;;;;;;;;;;5105864;28;20034;-45
2023/11/15 17:53:14;;;;;;;8.25;5.38;;;;;;;;;;5106390;28;20027;-45
2023/11/15 17:55:42;;;;;;;10.43;5.55;;;;;;;;;;5106018;28;20122;-46
2023/11/15 17:58:09;;;;;;;11.52;6.00;;;;;;;;;;5105903;28;20035;-46
2023/11/15 18:00:36;;;;;;;12.05;5.90;;;;;;;;;;5106010;28;20055;-52
2023/11/15 18:03:03;;;;;;;9.48;5.18;;;;;;;;;;5105669;28;20089;-46
2023/11/15 18:05:29;;;;;;;10.88;5.78;;;;;;;;;;5105521;28;20185;-45
2023/11/15 18:07:57;;;;;;;10.90;5.82;;;;;;;;;;5105562;28;20024;-49
2023/11/15 18:10:28;;;;;;;7.68;5.13;;;;;;;;;;5105513;28;20031;-44
2023/11/15 18:12:58;;;;;;;8.77;5.35;;;;;;;;;;5105515;28;20024;-49
2023/11/15 18:15:24;;;;;;;11.10;5.32;;;;;;;;;;5105592;28;20354;-53
2023/11/15 18:17:53;;;;;;;8.95;5.45;;;;;;;;;;5105535;28;20111;-46
2023/11/15 18:20:20;;;;;;;8.95;5.75;;;;;;;;;;5105120;28;20016;-48
2023/11/15 18:22:49;;;;;;;11.40;5.65;;;;;;;;;;5105345;28;20039;-45
2023/11/15 18:25:16;;;;;;;10.20;5.20;;;;;;;;;;5105504;28;20108;-49
2023/11/15 18:27:43;;;;;;;10.85;5.22;;;;;;;;;;5105055;28;20012;-47
2023/11/15 18:30:14;;;;;;;14.80;5.18;;;;;;;;;;5104905;28;20027;-42
2023/11/15 18:32:42;;;;;;;8.65;5.68;;;;;;;;;;5105145;28;20032;-40
2023/11/15 18:35:09;;;;;;;10.68;5.40;;;;;;;;;;5104928;28;20020;-47
2023/11/15 18:37:36;;;;;;;9.38;5.20;;;;;;;;;;5105038;28;20020;-42
2023/11/15 18:40:11;;;;;;;10.18;5.50;;;;;;;;;;5105211;28;20316;-41
2023/11/15 18:42:42;;;;;;;10.95;5.00;;;;;;;;;;5104536;28;20014;-46
2023/11/15 18:45:12;;;;;;;9.55;5.22;;;;;;;;;;5104770;28;20258;-41
2023/11/15 18:47:40;;;;;;;10.35;5.72;;;;;;;;;;5104723;28;20012;-48
2023/11/15 18:50:07;;;;;;;7.95;5.07;;;;;;;;;;5104826;28;20217;-50
2023/11/15 18:52:34;;;;;;;12.65;5.68;;;;;;;;;;5104197;28;20012;-43
2023/11/15 18:55:01;;;;;;;12.95;5.82;;;;;;;;;;5104607;28;20028;-45
2023/11/15 18:57:28;;;;;;;10.85;5.32;;;;;;;;;;5104652;28;20093;-45
2023/11/15 18:59:54;;;;;;;9.90;5.50;;;;;;;;;;5104735;28;20099;-45
2023/11/15 19:02:22;;;;;;;34.53;6.78;;;;;;;;;;5104498;28;20051;-43
2023/11/15 19:04:49;;;;;;;13.70;5.53;;;;;;;;;;5104953;28;20107;-43
2023/11/15 19:07:15;;;;;;;9.02;5.55;;;;;;;;;;5104817;28;20019;-47
2023/11/15 19:09:43;;;;;;;9.07;5.80;;;;;;;;;;5105063;28;20017;-48
2023/11/15 19:12:10;;;;;;;11.23;5.70;;;;;;;;;;5104962;28;20059;-49
2023/11/15 19:14:39;;;;;;;12.25;6.15;;;;;;;;;;5104794;28;20093;-44
2023/11/15 19:17:06;;;;;;;17.52;6.05;;;;;;;;;;5104261;28;20069;-50
2023/11/15 19:19:32;;;;;;;15.20;6.22;;;;;;;;;;5104481;28;20044;-44
2023/11/15 19:21:59;;;;;;;10.10;5.57;;;;;;;;;;5102912;28;20087;-40
2023/11/15 19:24:26;;;;;;;20.73;6.10;;;;;;;;;;5088090;28;20033;-50
2023/11/15 19:26:52;;;;;;;11.27;5.53;;;;;;;;;;5092270;28;20028;-47
2023/11/15 19:29:19;;;;;;;18.90;6.32;;;;;;;;;;5092417;28;20066;-45
2023/11/15 19:31:47;;;;;;;82.40;11.23;;;;;;;;;;5101725;28;20012;-44
2023/11/15 19:34:17;;;;;;;142.13;21.08;;;;;;;;;;5102756;28;20082;-51
2023/11/15 19:36:44;;;;;;;125.65;20.05;;;;;;;;;;5103609;28;20023;-44
2023/11/15 19:39:11;;;;;;;119.05;17.92;;;;;;;;;;5104516;28;20363;-47
2023/11/15 19:41:38;;;;;;;92.28;15.32;;;;;;;;;;5104039;28;20042;-48
2023/11/15 19:44:07;;;;;;;86.13;14.45;;;;;;;;;;5103758;28;20067;-46
2023/11/15 19:46:34;;;;;;;79.20;14.23;;;;;;;;;;5104054;28;20365;-50
2023/11/15 19:49:00;;;;;;;69.25;13.52;;;;;;;;;;5104279;28;20063;-51
2023/11/15 19:51:28;;;;;;;62.97;13.32;;;;;;;;;;5103620;28;20020;-54
2023/11/15 19:53:55;;;;;;;64.18;13.43;;;;;;;;;;5085641;28;20044;-49
2023/11/15 19:56:22;;;;;;;66.97;12.10;;;;;;;;;;5083761;28;20324;-57
2023/11/15 19:58:49;;;;;;;49.20;12.50;;;;;;;;;;5083995;28;20041;-57
2023/11/15 20:01:16;;;;;;;55.47;11.43;;;;;;;;;;5086904;28;20022;-55
2023/11/15 20:03:44;;;;;;;43.65;10.75;;;;;;;;;;5091105;28;20281;-60
2023/11/15 20:06:14;;;;;;;50.88;10.45;;;;;;;;;;5086157;28;20027;-59
2023/11/15 20:08:40;;;;;;;41.42;10.25;;;;;;;;;;5087789;28;20017;-55
2023/11/15 20:11:11;;;;;;;36.80;9.50;;;;;;;;;;5087512;28;20040;-54
2023/11/15 20:13:42;;;;;;;30.38;8.93;;;;;;;;;;5086385;28;20032;-55
2023/11/15 20:16:09;;;;;;;29.38;8.48;;;;;;;;;;5087338;28;20220;-54
2023/11/15 20:18:39;;;;;;;37.13;9.00;;;;;;;;;;5086242;28;20036;-56
2023/11/15 20:21:07;;;;;;;26.88;8.00;;;;;;;;;;5087113;28;20017;-53
2023/11/15 20:23:37;;;;;;;33.60;8.38;;;;;;;;;;5090233;28;20094;-54
2023/11/15 20:26:04;;;;;;;28.25;8.20;;;;;;;;;;5090813;28;20029;-53
2023/11/15 20:28:31;;;;;;;26.95;7.88;;;;;;;;;;5090046;28;20023;-54
2023/11/15 20:30:57;;;;;;;19.70;8.15;;;;;;;;;;5091823;28;20058;-54
2023/11/15 20:33:24;;;;;;;22.42;7.28;;;;;;;;;;5097368;28;20102;-60
2023/11/15 20:35:51;;;;;;;21.92;7.00;;;;;;;;;;5094444;28;20087;-55
2023/11/15 20:38:18;;;;;;;34.50;7.60;;;;;;;;;;5097015;28;20024;-54
2023/11/15 20:40:47;;;;;;;24.67;7.85;;;;;;;;;;5092289;28;20024;-53
2023/11/15 20:43:16;;;;;;;27.83;8.02;;;;;;;;;;5095799;28;20040;-55
2023/11/15 20:45:43;;;;;;;25.08;7.60;;;;;;;;;;5096137;28;20024;-56
2023/11/15 20:48:20;;;;;;;30.90;7.38;;;;;;;;;;5095000;28;20232;-56
2023/11/15 20:50:47;;;;;;;24.83;7.68;;;;;;;;;;5096112;28;20212;-57
2023/11/15 20:53:14;;;;;;;24.50;7.18;;;;;;;;;;5093593;28;20122;-54
2023/11/15 20:55:41;;;;;;;18.75;7.55;;;;;;;;;;5096304;28;20087;-52
2023/11/15 20:58:10;;;;;;;21.35;7.03;;;;;;;;;;5094273;28;20073;-55
2023/11/15 21:00:38;;;;;;;18.25;7.05;;;;;;;;;;5096807;28;20032;-52
2023/11/15 21:03:07;;;;;;;26.55;7.97;;;;;;;;;;5096070;28;20032;-48
2023/11/15 21:05:36;;;;;;;26.58;7.10;;;;;;;;;;5094938;28;20038;-57
2023/11/15 21:08:12;;;;;;;27.70;8.30;;;;;;;;;;5097008;28;20024;-53
2023/11/15 21:10:45;;;;;;;34.22;8.70;;;;;;;;;;5092962;28;20016;-52
2023/11/15 21:13:13;;;;;;;29.23;9.57;;;;;;;;;;5087735;28;20310;-54
2023/11/15 21:15:43;;;;;;;31.25;9.15;;;;;;;;;;5089168;28;20033;-52
2023/11/15 21:18:10;;;;;;;26.58;8.30;;;;;;;;;;5100133;28;20485;-54
2023/11/15 21:20:39;;;;;;;27.00;8.35;;;;;;;;;;5096754;28;20027;-54
2023/11/15 21:23:06;;;;;;;27.65;9.25;;;;;;;;;;5093591;28;20052;-51
2023/11/15 21:25:36;;;;;;;22.92;9.30;;;;;;;;;;5088577;28;20459;-52
2023/11/15 21:28:05;;;;;;;18.15;7.85;;;;;;;;;;5096586;28;20024;-55
2023/11/15 21:30:34;;;;;;;22.85;9.13;;;;;;;;;;5094609;28;20012;-54
2023/11/15 21:33:01;;;;;;;18.60;8.63;;;;;;;;;;5093793;28;20166;-53
2023/11/15 21:35:28;;;;;;;25.30;10.15;;;;;;;;;;5089095;28;20208;-52
2023/11/15 21:37:56;;;;;;;24.77;8.95;;;;;;;;;;5087058;28;20100;-51
2023/11/15 21:40:22;;;;;;;21.08;8.52;;;;;;;;;;5095621;28;20036;-60
2023/11/15 21:42:51;;;;;;;17.73;7.38;;;;;;;;;;5088848;28;20028;-58
2023/11/15 21:45:19;;;;;;;19.65;6.90;;;;;;;;;;5086468;28;20027;-59
2023/11/15 21:47:46;;;;;;;19.38;7.03;;;;;;;;;;5097130;28;20417;-58
2023/11/15 21:50:22;;;;;;;12.13;6.25;;;;;;;;;;5096151;28;20063;-59
2023/11/15 21:52:49;;;;;;;11.63;6.10;;;;;;;;;;5094425;28;20024;-58
2023/11/15 21:55:16;;;;;;;16.88;7.20;;;;;;;;;;5087538;28;20081;-60
2023/11/15 21:57:43;;;;;;;17.35;7.63;;;;;;;;;;5090151;28;20020;-58
2023/11/15 22:00:14;;;;;;;16.17;7.32;;;;;;;;;;5094297;28;20043;-60
2023/11/15 22:02:41;;;;;;;17.10;10.40;;;;;;;;;;5092815;28;20040;-59
2023/11/15 22:05:09;;;;;;;19.27;10.43;;;;;;;;;;5088283;28;20031;-57
2023/11/15 22:07:39;;;;;;;34.58;24.88;;;;;;;;;;5092709;28;20023;-59
2023/11/15 22:10:12;;;;;;;72.72;49.50;;;;;;;;;;5085172;28;20096;-56
2023/11/15 22:12:42;;;;;;;99.10;74.55;;;;;;;;;;5101132;28;20304;-57
2023/11/15 22:15:09;;;;;;;69.43;44.90;;;;;;;;;;5104314;28;20082;-60
2023/11/15 22:17:37;;;;;;;33.28;21.25;;;;;;;;;;5104260;28;20020;-60
2023/11/15 22:20:04;;;;;;;26.40;15.25;;;;;;;;;;5105623;28;20022;-57
2023/11/15 22:22:31;;;;;;;22.05;12.43;;;;;;;;;;5095110;28;20066;-54
2023/11/15 22:24:57;;;;;;;18.83;13.48;;;;;;;;;;5093872;28;20073;-56
2023/11/15 22:27:24;;;;;;;20.35;13.20;;;;;;;;;;5085042;28;20318;-51
2023/11/15 22:29:51;;;;;;;15.77;10.45;;;;;;;;;;5092460;28;20366;-53
2023/11/15 22:32:18;;;;;;;16.17;9.82;;;;;;;;;;5100346;28;20023;-53
2023/11/15 22:34:46;;;;;;;16.48;10.18;;;;;;;;;;5092980;28;20028;-57
2023/11/15 22:37:13;;;;;;;13.63;9.90;;;;;;;;;;5102360;28;20039;-57
2023/11/15 22:39:39;;;;;;;22.80;9.98;;;;;;;;;;5105558;28;20051;-56
2023/11/15 22:42:06;;;;;;;22.58;11.88;;;;;;;;;;5105155;28;20339;-60
2023/11/15 22:44:33;;;;;;;19.73;11.45;;;;;;;;;;5104562;28;20297;-57
2023/11/15 22:47:00;;;;;;;15.50;8.98;;;;;;;;;;5105119;28;20083;-54
2023/11/15 22:49:27;;;;;;;10.77;6.85;;;;;;;;;;5105555;28;20054;-56
2023/11/15 22:51:54;;;;;;;10.90;6.05;;;;;;;;;;5101572;28;20024;-52
2023/11/15 22:54:20;;;;;;;10.50;5.97;;;;;;;;;;5103280;28;20270;-58
2023/11/15 22:56:47;;;;;;;7.82;6.18;;;;;;;;;;5104886;28;20075;-55
2023/11/15 22:59:14;;;;;;;8.23;5.22;;;;;;;;;;5103782;28;20036;-55
2023/11/15 23:01:40;;;;;;;9.50;5.70;;;;;;;;;;5104426;28;20020;-56
2023/11/15 23:04:12;;;;;;;10.13;5.18;;;;;;;;;;5105554;28;20028;-54
2023/11/15 23:06:38;;;;;;;9.27;5.07;;;;;;;;;;5105520;28;20030;-55
2023/11/15 23:09:05;;;;;;;10.00;4.88;;;;;;;;;;5105599;28;20020;-54
2023/11/15 23:11:32;;;;;;;8.45;4.50;;;;;;;;;;5105602;28;20016;-55
2023/11/15 23:13:58;;;;;;;8.10;4.28;;;;;;;;;;5103752;28;20032;-54
2023/11/15 23:16:25;;;;;;;6.18;3.97;;;;;;;;;;5102999;28;20427;-53
2023/11/15 23:18:53;;;;;;;6.53;3.92;;;;;;;;;;5103666;28;20027;-57
2023/11/15 23:21:21;;;;;;;6.72;3.83;;;;;;;;;;5104396;28;20028;-56
2023/11/15 23:23:48;;;;;;;8.95;4.38;;;;;;;;;;5105534;28;20027;-58
2023/11/15 23:26:16;;;;;;;6.85;4.35;;;;;;;;;;5105329;28;20016;-59
2023/11/15 23:28:42;;;;;;;8.02;4.15;;;;;;;;;;5105333;28;20246;-54
2023/11/15 23:31:09;;;;;;;6.15;4.80;;;;;;;;;;5105295;28;20015;-55
2023/11/15 23:33:37;;;;;;;7.85;5.07;;;;;;;;;;5105475;28;20028;-54
2023/11/15 23:36:04;;;;;;;7.22;4.75;;;;;;;;;;5104930;28;20265;-55
2023/11/15 23:38:30;;;;;;;9.82;5.72;;;;;;;;;;5103728;28;20034;-57
2023/11/15 23:40:58;;;;;;;6.22;4.80;;;;;;;;;;5104806;28;20024;-55
2023/11/15 23:43:28;;;;;;;8.90;5.85;;;;;;;;;;5104493;28;20047;-56